sensor_id;sensor_type;location;lat;lon;timestamp;pressure;altitude;pressure_sealevel;temperature
68446;BMP280;35789;48.414;12.768;2023-04-04T00:00:00;97770.0;;;
68446;BMP280;35789;48.414;12.768;2023-04-04T00:05:00;97760.0;;;
68446;BMP280;35789;48.414;12.768;2023-04-04T00:10:01;97760.0;;;
68446;BMP280;35789;48.414;12.768;2023-04-04T00:15:00;97760.0;;;
68446;BMP280;35789;48.414;12.768;2023-04-04T00:20:00;97760.0;;;
68446;BMP280;35789;48.414;12.768;2023-04-04T00:25:00;97760.0;;;
68446;BMP280;35789;48.414;12.768;2023-04-04T00:30:00;97760.0;;;
68446;BMP280;35789;48.414;12.768;2023-04-04T00:35:00;97750.0;;;
68446;BMP280;35789;48.414;12.768;2023-04-04T00:40:00;97740.0;;;
68446;BMP280;35789;48.414;12.768;2023-04-04T00:45:00;97740.0;;;
68446;BMP280;35789;48.414;12.768;2023-04-04T00:50:00;97730.0;;;
68446;BMP280;35789;48.414;12.768;2023-04-04T00:55:00;97740.0;;;
68446;BMP280;35789;48.414;12.768;2023-04-04T01:00:03;97730.0;;;
68446;BMP280;35789;48.414;12.768;2023-04-04T01:05:02;97720.0;;;
68446;BMP280;35789;48.414;12.768;2023-04-04T01:10:01;97730.0;;;
68446;BMP280;35789;48.414;12.768;2023-04-04T01:15:00;97730.0;;;
68446;BMP280;35789;48.414;12.768;2023-04-04T01:20:05;97720.0;;;
68446;BMP280;35789;48.414;12.768;2023-04-04T01:25:02;97720.0;;;
68446;BMP280;35789;48.414;12.768;2023-04-04T01:30:01;97710.0;;;
68446;BMP280;35789;48.414;12.768;2023-04-04T01:35:14;97710.0;;;
68446;BMP280;35789;48.414;12.768;2023-04-04T01:40:07;97710.0;;;
68446;BMP280;35789;48.414;12.768;2023-04-04T01:45:00;97700.0;;;
68446;BMP280;35789;48.414;12.768;2023-04-04T01:50:00;97690.0;;;
68446;BMP280;35789;48.414;12.768;2023-04-04T01:55:01;97700.0;;;
68446;BMP280;35789;48.414;12.768;2023-04-04T02:00:00;97690.0;;;
68446;BMP280;35789;48.414;12.768;2023-04-04T02:05:00;97690.0;;;
68446;BMP280;35789;48.414;12.768;2023-04-04T02:10:00;97690.0;;;
68446;BMP280;35789;48.414;12.768;2023-04-04T02:15:00;97690.0;;;
68446;BMP280;35789;48.414;12.768;2023-04-04T02:20:00;97700.0;;;
68446;BMP280;35789;48.414;12.768;2023-04-04T02:25:00;97690.0;;;
68446;BMP280;35789;48.414;12.768;2023-04-04T02:30:00;97690.0;;;
68446;BMP280;35789;48.414;12.768;2023-04-04T02:35:00;97690.0;;;
68446;BMP280;35789;48.414;12.768;2023-04-04T02:40:00;97690.0;;;
68446;BMP280;35789;48.414;12.768;2023-04-04T02:45:00;97700.0;;;
68446;BMP280;35789;48.414;12.768;2023-04-04T02:50:00;97700.0;;;
68446;BMP280;35789;48.414;12.768;2023-04-04T02:55:00;97690.0;;;
68446;BMP280;35789;48.414;12.768;2023-04-04T03:00:01;97700.0;;;
68446;BMP280;35789;48.414;12.768;2023-04-04T03:05:00;97700.0;;;
68446;BMP280;35789;48.414;12.768;2023-04-04T03:10:00;97700.0;;;
68446;BMP280;35789;48.414;12.768;2023-04-04T03:15:00;97690.0;;;
68446;BMP280;35789;48.414;12.768;2023-04-04T03:20:00;97690.0;;;
68446;BMP280;35789;48.414;12.768;2023-04-04T03:25:00;97690.0;;;
68446;BMP280;35789;48.414;12.768;2023-04-04T03:30:01;97700.0;;;
68446;BMP280;35789;48.414;12.768;2023-04-04T03:35:00;97690.0;;;
68446;BMP280;35789;48.414;12.768;2023-04-04T03:40:00;97690.0;;;
68446;BMP280;35789;48.414;12.768;2023-04-04T03:45:00;97690.0;;;
68446;BMP280;35789;48.414;12.768;2023-04-04T03:50:00;97690.0;;;
68446;BMP280;35789;48.414;12.768;2023-04-04T03:55:00;97690.0;;;
68446;BMP280;35789;48.414;12.768;2023-04-04T04:00:02;97690.0;;;
68446;BMP280;35789;48.414;12.768;2023-04-04T04:05:00;97700.0;;;
68446;BMP280;35789;48.414;12.768;2023-04-04T04:10:00;97690.0;;;
68446;BMP280;35789;48.414;12.768;2023-04-04T04:15:00;97700.0;;;
68446;BMP280;35789;48.414;12.768;2023-04-04T04:20:00;97700.0;;;
68446;BMP280;35789;48.414;12.768;2023-04-04T04:25:00;97710.0;;;
68446;BMP280;35789;48.414;12.768;2023-04-04T04:30:00;97710.0;;;
68446;BMP280;35789;48.414;12.768;2023-04-04T04:35:00;97720.0;;;
68446;BMP280;35789;48.414;12.768;2023-04-04T04:40:00;97710.0;;;
68446;BMP280;35789;48.414;12.768;2023-04-04T04:45:00;97720.0;;;
68446;BMP280;35789;48.414;12.768;2023-04-04T04:50:00;97720.0;;;
68446;BMP280;35789;48.414;12.768;2023-04-04T04:55:00;97720.0;;;
68446;BMP280;35789;48.414;12.768;2023-04-04T05:00:01;97720.0;;;
68446;BMP280;35789;48.414;12.768;2023-04-04T05:05:00;97720.0;;;
68446;BMP280;35789;48.414;12.768;2023-04-04T05:10:01;97720.0;;;
68446;BMP280;35789;48.414;12.768;2023-04-04T05:15:00;97730.0;;;
68446;BMP280;35789;48.414;12.768;2023-04-04T05:20:00;97730.0;;;
68446;BMP280;35789;48.414;12.768;2023-04-04T05:25:00;97730.0;;;
68446;BMP280;35789;48.414;12.768;2023-04-04T05:30:00;97730.0;;;
68446;BMP280;35789;48.414;12.768;2023-04-04T05:35:00;97740.0;;;
68446;BMP280;35789;48.414;12.768;2023-04-04T05:40:00;97740.0;;;
68446;BMP280;35789;48.414;12.768;2023-04-04T05:45:00;97740.0;;;
68446;BMP280;35789;48.414;12.768;2023-04-04T05:50:01;97740.0;;;
68446;BMP280;35789;48.414;12.768;2023-04-04T05:55:00;97740.0;;;
68446;BMP280;35789;48.414;12.768;2023-04-04T06:00:00;97740.0;;;
68446;BMP280;35789;48.414;12.768;2023-04-04T06:05:00;97740.0;;;
68446;BMP280;35789;48.414;12.768;2023-04-04T06:10:00;97740.0;;;
68446;BMP280;35789;48.414;12.768;2023-04-04T06:15:00;97740.0;;;
68446;BMP280;35789;48.414;12.768;2023-04-04T06:20:00;97740.0;;;
68446;BMP280;35789;48.414;12.768;2023-04-04T06:25:00;97740.0;;;
68446;BMP280;35789;48.414;12.768;2023-04-04T06:30:00;97730.0;;;
68446;BMP280;35789;48.414;12.768;2023-04-04T06:35:00;97730.0;;;
68446;BMP280;35789;48.414;12.768;2023-04-04T06:40:00;97730.0;;;
68446;BMP280;35789;48.414;12.768;2023-04-04T06:45:00;97730.0;;;
68446;BMP280;35789;48.414;12.768;2023-04-04T06:50:00;97730.0;;;
68446;BMP280;35789;48.414;12.768;2023-04-04T06:55:01;97730.0;;;
68446;BMP280;35789;48.414;12.768;2023-04-04T07:00:00;97720.0;;;
68446;BMP280;35789;48.414;12.768;2023-04-04T07:05:01;97720.0;;;
68446;BMP280;35789;48.414;12.768;2023-04-04T07:10:00;97720.0;;;
68446;BMP280;35789;48.414;12.768;2023-04-04T07:15:00;97720.0;;;
68446;BMP280;35789;48.414;12.768;2023-04-04T07:20:00;97720.0;;;
68446;BMP280;35789;48.414;12.768;2023-04-04T07:25:00;97710.0;;;
68446;BMP280;35789;48.414;12.768;2023-04-04T07:30:00;97710.0;;;
68446;BMP280;35789;48.414;12.768;2023-04-04T07:35:00;97710.0;;;
68446;BMP280;35789;48.414;12.768;2023-04-04T07:40:00;97710.0;;;
68446;BMP280;35789;48.414;12.768;2023-04-04T07:45:00;97710.0;;;
68446;BMP280;35789;48.414;12.768;2023-04-04T07:50:00;97700.0;;;
68446;BMP280;35789;48.414;12.768;2023-04-04T07:55:00;97700.0;;;
68446;BMP280;35789;48.414;12.768;2023-04-04T08:00:00;97700.0;;;
68446;BMP280;35789;48.414;12.768;2023-04-04T08:05:00;97710.0;;;
68446;BMP280;35789;48.414;12.768;2023-04-04T08:10:00;97720.0;;;
68446;BMP280;35789;48.414;12.768;2023-04-04T08:15:00;97710.0;;;
68446;BMP280;35789;48.414;12.768;2023-04-04T08:20:00;97720.0;;;
68446;BMP280;35789;48.414;12.768;2023-04-04T08:25:00;97720.0;;;
68446;BMP280;35789;48.414;12.768;2023-04-04T08:30:00;97710.0;;;
68446;BMP280;35789;48.414;12.768;2023-04-04T08:35:00;97710.0;;;
68446;BMP280;35789;48.414;12.768;2023-04-04T08:40:02;97710.0;;;
68446;BMP280;35789;48.414;12.768;2023-04-04T08:45:03;97710.0;;;
68446;BMP280;35789;48.414;12.768;2023-04-04T08:50:04;97710.0;;;
68446;BMP280;35789;48.414;12.768;2023-04-04T08:55:03;97700.0;;;
68446;BMP280;35789;48.414;12.768;2023-04-04T09:00:01;97710.0;;;
68446;BMP280;35789;48.414;12.768;2023-04-04T09:05:01;97700.0;;;
68446;BMP280;35789;48.414;12.768;2023-04-04T09:10:02;97700.0;;;
68446;BMP280;35789;48.414;12.768;2023-04-04T09:15:01;97690.0;;;
68446;BMP280;35789;48.414;12.768;2023-04-04T09:20:01;97690.0;;;
68446;BMP280;35789;48.414;12.768;2023-04-04T09:25:00;97700.0;;;
68446;BMP280;35789;48.414;12.768;2023-04-04T09:30:02;97690.0;;;
68446;BMP280;35789;48.414;12.768;2023-04-04T09:35:01;97700.0;;;
68446;BMP280;35789;48.414;12.768;2023-04-04T09:40:03;97700.0;;;
68446;BMP280;35789;48.414;12.768;2023-04-04T09:45:01;97700.0;;;
68446;BMP280;35789;48.414;12.768;2023-04-04T09:50:02;97690.0;;;
68446;BMP280;35789;48.414;12.768;2023-04-04T09:55:04;97700.0;;;
68446;BMP280;35789;48.414;12.768;2023-04-04T10:00:04;97690.0;;;
68446;BMP280;35789;48.414;12.768;2023-04-04T10:05:02;97680.0;;;
68446;BMP280;35789;48.414;12.768;2023-04-04T10:10:03;97670.0;;;
68446;BMP280;35789;48.414;12.768;2023-04-04T10:15:01;97670.0;;;
68446;BMP280;35789;48.414;12.768;2023-04-04T10:20:04;97670.0;;;
68446;BMP280;35789;48.414;12.768;2023-04-04T10:25:01;97660.0;;;
68446;BMP280;35789;48.414;12.768;2023-04-04T10:30:01;97650.0;;;
68446;BMP280;35789;48.414;12.768;2023-04-04T10:35:04;97650.0;;;
68446;BMP280;35789;48.414;12.768;2023-04-04T10:40:07;97660.0;;;
68446;BMP280;35789;48.414;12.768;2023-04-04T10:45:01;97660.0;;;
68446;BMP280;35789;48.414;12.768;2023-04-04T10:50:03;97650.0;;;
68446;BMP280;35789;48.414;12.768;2023-04-04T10:55:04;97650.0;;;
68446;BMP280;35789;48.414;12.768;2023-04-04T11:00:03;97650.0;;;
68446;BMP280;35789;48.414;12.768;2023-04-04T11:05:09;97660.0;;;
68446;BMP280;35789;48.414;12.768;2023-04-04T11:10:00;97660.0;;;
68446;BMP280;35789;48.414;12.768;2023-04-04T11:15:08;97660.0;;;
68446;BMP280;35789;48.414;12.768;2023-04-04T11:20:00;97660.0;;;
68446;BMP280;35789;48.414;12.768;2023-04-04T11:25:28;97660.0;;;
68446;BMP280;35789;48.414;12.768;2023-04-04T11:30:11;97640.0;;;
68446;BMP280;35789;48.414;12.768;2023-04-04T11:35:04;97640.0;;;
68446;BMP280;35789;48.414;12.768;2023-04-04T11:40:08;97640.0;;;
68446;BMP280;35789;48.414;12.768;2023-04-04T11:45:03;97630.0;;;
68446;BMP280;35789;48.414;12.768;2023-04-04T11:50:07;97620.0;;;
68446;BMP280;35789;48.414;12.768;2023-04-04T11:55:01;97610.0;;;
68446;BMP280;35789;48.414;12.768;2023-04-04T12:00:00;97600.0;;;
68446;BMP280;35789;48.414;12.768;2023-04-04T12:05:01;97600.0;;;
68446;BMP280;35789;48.414;12.768;2023-04-04T12:10:03;97600.0;;;
68446;BMP280;35789;48.414;12.768;2023-04-04T12:15:01;97600.0;;;
68446;BMP280;35789;48.414;12.768;2023-04-04T12:20:00;97600.0;;;
68446;BMP280;35789;48.414;12.768;2023-04-04T12:25:01;97600.0;;;
68446;BMP280;35789;48.414;12.768;2023-04-04T12:30:08;97600.0;;;
68446;BMP280;35789;48.414;12.768;2023-04-04T12:35:01;97600.0;;;
68446;BMP280;35789;48.414;12.768;2023-04-04T12:40:01;97600.0;;;
68446;BMP280;35789;48.414;12.768;2023-04-04T12:45:02;97600.0;;;
68446;BMP280;35789;48.414;12.768;2023-04-04T12:50:00;97580.0;;;
68446;BMP280;35789;48.414;12.768;2023-04-04T12:55:07;97580.0;;;
68446;BMP280;35789;48.414;12.768;2023-04-04T13:00:03;97570.0;;;
68446;BMP280;35789;48.414;12.768;2023-04-04T13:05:03;97570.0;;;
68446;BMP280;35789;48.414;12.768;2023-04-04T13:10:03;97560.0;;;
68446;BMP280;35789;48.414;12.768;2023-04-04T13:15:02;97550.0;;;
68446;BMP280;35789;48.414;12.768;2023-04-04T13:20:00;97540.0;;;
68446;BMP280;35789;48.414;12.768;2023-04-04T13:25:00;97540.0;;;
68446;BMP280;35789;48.414;12.768;2023-04-04T13:30:01;97540.0;;;
68446;BMP280;35789;48.414;12.768;2023-04-04T13:35:01;97540.0;;;
68446;BMP280;35789;48.414;12.768;2023-04-04T13:40:00;97540.0;;;
68446;BMP280;35789;48.414;12.768;2023-04-04T13:45:00;97530.0;;;
68446;BMP280;35789;48.414;12.768;2023-04-04T13:50:00;97530.0;;;
68446;BMP280;35789;48.414;12.768;2023-04-04T13:55:00;97520.0;;;
68446;BMP280;35789;48.414;12.768;2023-04-04T14:00:00;97520.0;;;
68446;BMP280;35789;48.414;12.768;2023-04-04T14:05:00;97510.0;;;
68446;BMP280;35789;48.414;12.768;2023-04-04T14:10:00;97500.0;;;
68446;BMP280;35789;48.414;12.768;2023-04-04T14:15:00;97510.0;;;
68446;BMP280;35789;48.414;12.768;2023-04-04T14:20:01;97500.0;;;
68446;BMP280;35789;48.414;12.768;2023-04-04T14:25:01;97500.0;;;
68446;BMP280;35789;48.414;12.768;2023-04-04T14:30:00;97510.0;;;
68446;BMP280;35789;48.414;12.768;2023-04-04T14:35:00;97510.0;;;
68446;BMP280;35789;48.414;12.768;2023-04-04T14:40:00;97510.0;;;
68446;BMP280;35789;48.414;12.768;2023-04-04T14:45:00;97520.0;;;
68446;BMP280;35789;48.414;12.768;2023-04-04T14:50:00;97520.0;;;
68446;BMP280;35789;48.414;12.768;2023-04-04T14:55:00;97520.0;;;
68446;BMP280;35789;48.414;12.768;2023-04-04T15:00:00;97510.0;;;
68446;BMP280;35789;48.414;12.768;2023-04-04T15:05:00;97520.0;;;
68446;BMP280;35789;48.414;12.768;2023-04-04T15:10:00;97510.0;;;
68446;BMP280;35789;48.414;12.768;2023-04-04T15:15:00;97510.0;;;
68446;BMP280;35789;48.414;12.768;2023-04-04T15:20:00;97510.0;;;
68446;BMP280;35789;48.414;12.768;2023-04-04T15:25:00;97500.0;;;
68446;BMP280;35789;48.414;12.768;2023-04-04T15:30:01;97500.0;;;
68446;BMP280;35789;48.414;12.768;2023-04-04T15:35:00;97500.0;;;
68446;BMP280;35789;48.414;12.768;2023-04-04T15:40:00;97510.0;;;
68446;BMP280;35789;48.414;12.768;2023-04-04T15:45:00;97510.0;;;
68446;BMP280;35789;48.414;12.768;2023-04-04T15:50:01;97510.0;;;
68446;BMP280;35789;48.414;12.768;2023-04-04T15:55:01;97510.0;;;
68446;BMP280;35789;48.414;12.768;2023-04-04T16:00:00;97510.0;;;
68446;BMP280;35789;48.414;12.768;2023-04-04T16:05:01;97510.0;;;
68446;BMP280;35789;48.414;12.768;2023-04-04T16:10:01;97510.0;;;
68446;BMP280;35789;48.414;12.768;2023-04-04T16:15:00;97500.0;;;
68446;BMP280;35789;48.414;12.768;2023-04-04T16:20:00;97500.0;;;
68446;BMP280;35789;48.414;12.768;2023-04-04T16:25:01;97500.0;;;
68446;BMP280;35789;48.414;12.768;2023-04-04T16:30:00;97500.0;;;
68446;BMP280;35789;48.414;12.768;2023-04-04T16:35:00;97500.0;;;
68446;BMP280;35789;48.414;12.768;2023-04-04T16:40:00;97500.0;;;
68446;BMP280;35789;48.414;12.768;2023-04-04T16:45:00;97490.0;;;
68446;BMP280;35789;48.414;12.768;2023-04-04T16:50:01;97500.0;;;
68446;BMP280;35789;48.414;12.768;2023-04-04T16:55:00;97490.0;;;
68446;BMP280;35789;48.414;12.768;2023-04-04T17:00:01;97490.0;;;
68446;BMP280;35789;48.414;12.768;2023-04-04T17:05:00;97480.0;;;
68446;BMP280;35789;48.414;12.768;2023-04-04T17:10:00;97490.0;;;
68446;BMP280;35789;48.414;12.768;2023-04-04T17:15:03;97490.0;;;
68446;BMP280;35789;48.414;12.768;2023-04-04T17:20:00;97490.0;;;
68446;BMP280;35789;48.414;12.768;2023-04-04T17:25:00;97490.0;;;
68446;BMP280;35789;48.414;12.768;2023-04-04T17:30:00;97490.0;;;
68446;BMP280;35789;48.414;12.768;2023-04-04T17:35:00;97490.0;;;
68446;BMP280;35789;48.414;12.768;2023-04-04T17:40:01;97490.0;;;
68446;BMP280;35789;48.414;12.768;2023-04-04T17:45:00;97480.0;;;
68446;BMP280;35789;48.414;12.768;2023-04-04T17:50:00;97490.0;;;
68446;BMP280;35789;48.414;12.768;2023-04-04T17:55:01;97500.0;;;
68446;BMP280;35789;48.414;12.768;2023-04-04T18:00:00;97500.0;;;
68446;BMP280;35789;48.414;12.768;2023-04-04T18:05:00;97500.0;;;
68446;BMP280;35789;48.414;12.768;2023-04-04T18:10:00;97510.0;;;
68446;BMP280;35789;48.414;12.768;2023-04-04T18:15:01;97510.0;;;
68446;BMP280;35789;48.414;12.768;2023-04-04T18:20:00;97510.0;;;
68446;BMP280;35789;48.414;12.768;2023-04-04T18:25:00;97510.0;;;
68446;BMP280;35789;48.414;12.768;2023-04-04T18:30:00;97510.0;;;
68446;BMP280;35789;48.414;12.768;2023-04-04T18:35:00;97510.0;;;
68446;BMP280;35789;48.414;12.768;2023-04-04T18:40:01;97510.0;;;
68446;BMP280;35789;48.414;12.768;2023-04-04T18:45:01;97510.0;;;
68446;BMP280;35789;48.414;12.768;2023-04-04T18:50:01;97520.0;;;
68446;BMP280;35789;48.414;12.768;2023-04-04T18:55:00;97520.0;;;
68446;BMP280;35789;48.414;12.768;2023-04-04T19:00:00;97520.0;;;
68446;BMP280;35789;48.414;12.768;2023-04-04T19:05:02;97520.0;;;
68446;BMP280;35789;48.414;12.768;2023-04-04T19:10:04;97520.0;;;
68446;BMP280;35789;48.414;12.768;2023-04-04T19:15:00;97520.0;;;
68446;BMP280;35789;48.414;12.768;2023-04-04T19:20:00;97520.0;;;
68446;BMP280;35789;48.414;12.768;2023-04-04T19:25:00;97530.0;;;
68446;BMP280;35789;48.414;12.768;2023-04-04T19:30:00;97520.0;;;
68446;BMP280;35789;48.414;12.768;2023-04-04T19:35:01;97520.0;;;
68446;BMP280;35789;48.414;12.768;2023-04-04T19:40:00;97520.0;;;
68446;BMP280;35789;48.414;12.768;2023-04-04T19:45:00;97520.0;;;
68446;BMP280;35789;48.414;12.768;2023-04-04T19:50:00;97520.0;;;
68446;BMP280;35789;48.414;12.768;2023-04-04T19:55:00;97520.0;;;
68446;BMP280;35789;48.414;12.768;2023-04-04T20:00:09;97520.0;;;
68446;BMP280;35789;48.414;12.768;2023-04-04T20:05:01;97520.0;;;
68446;BMP280;35789;48.414;12.768;2023-04-04T20:10:01;97520.0;;;
68446;BMP280;35789;48.414;12.768;2023-04-04T20:15:00;97520.0;;;
68446;BMP280;35789;48.414;12.768;2023-04-04T20:20:00;97520.0;;;
68446;BMP280;35789;48.414;12.768;2023-04-04T20:25:00;97520.0;;;
68446;BMP280;35789;48.414;12.768;2023-04-04T20:30:00;97520.0;;;
68446;BMP280;35789;48.414;12.768;2023-04-04T20:35:01;97520.0;;;
68446;BMP280;35789;48.414;12.768;2023-04-04T20:40:08;97520.0;;;
68446;BMP280;35789;48.414;12.768;2023-04-04T20:45:12;97530.0;;;
68446;BMP280;35789;48.414;12.768;2023-04-04T20:50:18;97530.0;;;
68446;BMP280;35789;48.414;12.768;2023-04-04T20:55:01;97530.0;;;
68446;BMP280;35789;48.414;12.768;2023-04-04T21:00:02;97530.0;;;
68446;BMP280;35789;48.414;12.768;2023-04-04T21:05:00;97530.0;;;
68446;BMP280;35789;48.414;12.768;2023-04-04T21:10:00;97530.0;;;
68446;BMP280;35789;48.414;12.768;2023-04-04T21:15:00;97530.0;;;
68446;BMP280;35789;48.414;12.768;2023-04-04T21:20:00;97530.0;;;
68446;BMP280;35789;48.414;12.768;2023-04-04T21:25:00;97520.0;;;
68446;BMP280;35789;48.414;12.768;2023-04-04T21:30:00;97520.0;;;
68446;BMP280;35789;48.414;12.768;2023-04-04T21:35:06;97530.0;;;
68446;BMP280;35789;48.414;12.768;2023-04-04T21:40:00;97530.0;;;
68446;BMP280;35789;48.414;12.768;2023-04-04T21:45:00;97530.0;;;
68446;BMP280;35789;48.414;12.768;2023-04-04T21:50:00;97530.0;;;
68446;BMP280;35789;48.414;12.768;2023-04-04T21:55:00;97530.0;;;
68446;BMP280;35789;48.414;12.768;2023-04-04T22:00:02;97520.0;;;
68446;BMP280;35789;48.414;12.768;2023-04-04T22:05:00;97530.0;;;
68446;BMP280;35789;48.414;12.768;2023-04-04T22:10:00;97530.0;;;
68446;BMP280;35789;48.414;12.768;2023-04-04T22:15:00;97530.0;;;
68446;BMP280;35789;48.414;12.768;2023-04-04T22:20:00;97530.0;;;
68446;BMP280;35789;48.414;12.768;2023-04-04T22:25:00;97520.0;;;
68446;BMP280;35789;48.414;12.768;2023-04-04T22:30:00;97520.0;;;
68446;BMP280;35789;48.414;12.768;2023-04-04T22:35:01;97510.0;;;
68446;BMP280;35789;48.414;12.768;2023-04-04T22:40:00;97510.0;;;
68446;BMP280;35789;48.414;12.768;2023-04-04T22:45:00;97510.0;;;
68446;BMP280;35789;48.414;12.768;2023-04-04T22:50:01;97510.0;;;
68446;BMP280;35789;48.414;12.768;2023-04-04T22:55:00;97510.0;;;
68446;BMP280;35789;48.414;12.768;2023-04-04T23:00:00;97510.0;;;
68446;BMP280;35789;48.414;12.768;2023-04-04T23:05:00;97510.0;;;
68446;BMP280;35789;48.414;12.768;2023-04-04T23:10:00;97510.0;;;
68446;BMP280;35789;48.414;12.768;2023-04-04T23:15:00;97510.0;;;
68446;BMP280;35789;48.414;12.768;2023-04-04T23:20:01;97510.0;;;
68446;BMP280;35789;48.414;12.768;2023-04-04T23:25:00;97510.0;;;
68446;BMP280;35789;48.414;12.768;2023-04-04T23:30:01;97510.0;;;
68446;BMP280;35789;48.414;12.768;2023-04-04T23:35:01;97510.0;;;
68446;BMP280;35789;48.414;12.768;2023-04-04T23:40:00;97500.0;;;
68446;BMP280;35789;48.414;12.768;2023-04-04T23:45:00;97510.0;;;
68446;BMP280;35789;48.414;12.768;2023-04-04T23:50:01;97510.0;;;
68446;BMP280;35789;48.414;12.768;2023-04-04T23:55:00;97510.0;;;
